Harold, Florida
Current Conditions -  °F | °C
As of 7:56 AM on Saturday 01 Nov 2014 (Local Time) from KNDZ Reporting Station
Clear Clear  
Wind Chill: 34°   Ceiling: Unl
Heat Index: 42°   Visibility: 10mi
Dew Point: 26°   Wind: 17mph
Humidity: 53%   Direction: 330°NNW
Pressure: 30.22"   Gusts: 24mph
Location:  30.66°N, 86.88°W
Report Text: KNDZ 011256Z AUTO 33015G21KT 10SM CLR 06/M03 A3022 RMK AO2 SLP221 T00561033 $
Loading
Personal Weather Stations






























Interactive Weather Map
Tropical Storm Tracking
New forecast layout! Learn more

10-Day Weather Forecast

Advertisements
Track Severe Weather on mobile